createdAt,value
2023-02-22T00:09:02.621Z,5.83
2023-02-22T00:19:24.276Z,5.83
2023-02-22T00:29:46.590Z,5.81
2023-02-22T00:40:10.509Z,5.80
2023-02-22T00:50:32.966Z,5.81
2023-02-22T01:00:55.255Z,5.80
2023-02-22T01:11:17.720Z,5.79
2023-02-22T01:21:41.087Z,5.79
2023-02-22T01:32:02.898Z,5.79
2023-02-22T01:42:24.688Z,5.80
2023-02-22T01:52:46.214Z,5.78
2023-02-22T02:03:15.156Z,5.78
2023-02-22T02:13:37.697Z,5.79
2023-02-22T02:24:09.298Z,5.78
2023-02-22T02:34:39.661Z,5.77
2023-02-22T02:45:06.174Z,5.77
2023-02-22T02:55:28.220Z,5.77
2023-02-22T03:06:11.478Z,5.76
2023-02-22T03:16:44.996Z,5.75
2023-02-22T03:27:10.568Z,5.74
2023-02-22T03:37:40.260Z,5.74
2023-02-22T03:48:35.289Z,5.73
2023-02-22T03:58:56.723Z,5.73
2023-02-22T04:09:18.907Z,5.73
2023-02-22T04:19:40.381Z,5.73
2023-02-22T04:30:02.213Z,5.72
2023-02-22T04:40:26.019Z,5.72
2023-02-22T04:50:47.820Z,5.72
2023-02-22T05:01:10.643Z,5.71
2023-02-22T05:11:32.085Z,5.71
2023-02-22T05:21:53.199Z,5.71
2023-02-22T05:32:14.788Z,5.71
2023-02-22T05:42:36.068Z,5.70
2023-02-22T05:52:57.731Z,5.70
2023-02-22T06:03:18.857Z,5.70
2023-02-22T06:13:40.883Z,5.69
2023-02-22T06:24:05.076Z,5.69
2023-02-22T06:34:26.416Z,5.68
2023-02-22T06:44:48.286Z,5.68
2023-02-22T06:55:10.717Z,5.69
2023-02-22T07:05:32.114Z,5.69
2023-02-22T07:15:53.606Z,5.71
2023-02-22T07:26:14.785Z,5.74
2023-02-22T07:36:35.985Z,5.76
2023-02-22T07:46:57.333Z,5.80
2023-02-22T07:57:18.672Z,5.85
2023-02-22T08:07:40.334Z,5.89
2023-02-22T08:18:03.788Z,5.92
2023-02-22T08:28:25.577Z,5.98
2023-02-22T08:38:46.926Z,6.02
2023-02-22T08:49:09.086Z,6.07
2023-02-22T08:59:30.190Z,6.15
2023-02-22T09:09:52.598Z,6.21
2023-02-22T09:20:14.504Z,6.30
2023-02-22T09:30:36.526Z,6.38
2023-02-22T09:41:19.854Z,6.45
2023-02-22T09:52:01.117Z,6.53
2023-02-22T10:02:32.779Z,6.63
2023-02-22T10:13:00.893Z,6.72
2023-02-22T10:23:33.214Z,6.82
2023-02-22T10:34:07.638Z,6.92
2023-02-22T10:44:29.258Z,6.98
2023-02-22T10:54:52.310Z,7.00
2023-02-22T11:05:38.898Z,7.02
2023-02-22T11:16:19.852Z,7.06
2023-02-22T11:26:43.930Z,7.11
2023-02-22T11:37:19.788Z,7.15
2023-02-22T11:47:53.275Z,7.22
2023-02-22T11:58:17.029Z,7.31
2023-02-22T12:09:14.387Z,7.44
2023-02-22T12:19:43.454Z,7.51
2023-02-22T12:30:30.242Z,7.58
2023-02-22T12:40:57.481Z,7.72
2023-02-22T12:51:25.529Z,7.86
2023-02-22T13:01:52.721Z,7.93
2023-02-22T13:12:19.692Z,7.95
2023-02-22T13:22:49.720Z,7.96
2023-02-22T13:33:28.754Z,7.99
2023-02-22T13:44:05.116Z,8.04
2023-02-22T13:54:58.575Z,8.05
2023-02-22T14:05:50.388Z,8.09
2023-02-22T14:16:11.694Z,8.15
2023-02-22T14:26:36.633Z,8.17
2023-02-22T14:37:07.993Z,8.18
2023-02-22T14:47:32.422Z,8.19
2023-02-22T14:58:10.751Z,8.19
2023-02-22T15:08:34.407Z,8.21
2023-02-22T15:19:00.010Z,8.23
2023-02-22T15:29:24.855Z,8.22
2023-02-22T15:39:46.075Z,8.20
2023-02-22T15:50:26.239Z,8.17
2023-02-22T16:00:51.471Z,8.12
2023-02-22T16:11:22.866Z,8.05
2023-02-22T16:21:55.110Z,7.98
2023-02-22T16:32:16.374Z,7.92
2023-02-22T16:42:37.577Z,7.84
2023-02-22T16:53:00.589Z,7.76
2023-02-22T17:03:21.926Z,7.69
2023-02-22T17:13:45.872Z,7.62
2023-02-22T17:24:07.267Z,7.54
2023-02-22T17:34:28.463Z,7.49
2023-02-22T17:44:49.638Z,7.41
2023-02-22T17:55:12.762Z,7.35
2023-02-22T18:05:39.662Z,7.30
2023-02-22T18:16:00.910Z,7.23
2023-02-22T18:26:24.140Z,7.18
2023-02-22T18:36:45.656Z,7.13
2023-02-22T18:47:06.735Z,7.07
2023-02-22T18:57:27.900Z,7.03
2023-02-22T19:07:50.586Z,6.98
2023-02-22T19:18:11.661Z,6.92
2023-02-22T19:28:35.971Z,6.86
2023-02-22T19:39:02.092Z,6.82
2023-02-22T19:59:51.240Z,6.72
2023-02-22T20:10:12.735Z,6.68
2023-02-22T20:20:36.877Z,6.62
2023-02-22T20:30:58.071Z,6.58
2023-02-22T20:41:25.031Z,6.54
2023-02-22T20:51:47.212Z,6.47
2023-02-22T21:02:08.806Z,6.43
2023-02-22T21:12:29.893Z,6.38
2023-02-22T21:22:52.873Z,6.29
2023-02-22T21:33:17.385Z,6.22
2023-02-22T21:43:38.870Z,6.17
2023-02-22T21:54:06.544Z,6.10
2023-02-22T22:04:32.675Z,6.05
2023-02-22T22:14:54.712Z,6.01
2023-02-22T22:25:19.551Z,5.97
2023-02-22T22:35:42.092Z,5.93
2023-02-22T22:46:05.642Z,5.88
2023-02-22T22:56:28.051Z,5.83
2023-02-22T23:06:51.238Z,5.77
2023-02-22T23:17:27.187Z,5.72
2023-02-22T23:27:48.746Z,5.69
2023-02-22T23:38:11.236Z,5.66
2023-02-22T23:48:33.585Z,5.63
2023-02-22T23:58:57.676Z,5.57
